createdAt,value
2019-05-20T00:00:25.076Z,944.01
2019-05-20T00:01:25.082Z,944.03
2019-05-20T00:02:28.372Z,944.03
2019-05-20T00:03:25.105Z,944.04
2019-05-20T00:04:25.121Z,944.03
2019-05-20T00:05:25.205Z,944.00
2019-05-20T00:06:25.131Z,944.05
2019-05-20T00:07:25.135Z,944.00
2019-05-20T00:08:25.148Z,944.00
2019-05-20T00:09:25.161Z,944.00
2019-05-20T00:10:25.165Z,944.00
2019-05-20T00:11:25.175Z,943.95
2019-05-20T00:12:25.186Z,943.93
2019-05-20T00:13:25.192Z,943.92
2019-05-20T00:14:25.200Z,943.93
2019-05-20T00:15:25.214Z,943.91
2019-05-20T00:16:25.224Z,943.88
2019-05-20T00:17:25.247Z,943.91
2019-05-20T00:18:25.251Z,943.89
2019-05-20T00:19:25.259Z,943.87
2019-05-20T00:20:25.257Z,943.90
2019-05-20T00:21:25.268Z,943.94
2019-05-20T00:22:25.277Z,943.98
2019-05-20T00:23:25.278Z,944.01
2019-05-20T00:24:25.372Z,944.03
2019-05-20T00:25:25.304Z,944.01
2019-05-20T00:26:25.311Z,944.07
2019-05-20T00:27:25.329Z,944.03
2019-05-20T00:28:25.327Z,944.03
2019-05-20T00:29:25.337Z,944.04
2019-05-20T00:30:25.347Z,944.03
2019-05-20T00:31:25.358Z,943.99
2019-05-20T00:32:40.319Z,943.99
2019-05-20T00:33:25.377Z,943.99
2019-05-20T00:34:34.645Z,944.00
2019-05-20T00:35:25.392Z,944.03
2019-05-20T00:36:25.403Z,943.97
2019-05-20T00:37:25.415Z,944.00
2019-05-20T00:38:25.415Z,943.98
2019-05-20T00:39:25.429Z,943.98
2019-05-20T00:40:25.443Z,943.96
2019-05-20T00:41:25.447Z,943.96
2019-05-20T00:42:25.460Z,943.96
2019-05-20T00:43:25.471Z,943.95
2019-05-20T00:44:25.474Z,943.95
2019-05-20T00:45:25.486Z,943.95
2019-05-20T00:46:25.498Z,943.98
2019-05-20T00:47:25.503Z,943.93
2019-05-20T00:48:25.511Z,943.93
2019-05-20T00:49:25.519Z,943.92
2019-05-20T00:50:25.530Z,943.93
2019-05-20T00:51:25.538Z,943.95
2019-05-20T00:52:25.545Z,943.97
2019-05-20T00:53:25.558Z,943.97
2019-05-20T00:54:25.567Z,943.99
2019-05-20T00:55:25.577Z,944.00
2019-05-20T00:56:25.584Z,943.98
2019-05-20T00:57:25.603Z,943.93
2019-05-20T00:58:25.600Z,943.95
2019-05-20T00:59:25.624Z,943.90
2019-05-20T01:00:25.620Z,943.92
2019-05-20T01:01:25.629Z,943.89
2019-05-20T01:02:25.640Z,943.92
2019-05-20T01:03:25.651Z,943.90
2019-05-20T01:04:25.663Z,943.96
2019-05-20T01:05:25.674Z,943.97
2019-05-20T01:06:25.679Z,944.04
2019-05-20T01:07:25.684Z,944.01
2019-05-20T01:08:25.703Z,944.06
2019-05-20T01:09:25.716Z,944.08
2019-05-20T01:10:25.711Z,944.11
2019-05-20T01:11:25.722Z,944.09
2019-05-20T01:12:25.729Z,944.10
2019-05-20T01:13:25.736Z,944.11
2019-05-20T01:14:25.752Z,944.10
2019-05-20T01:15:25.760Z,944.11
2019-05-20T01:16:25.774Z,944.10
2019-05-20T01:17:25.775Z,944.07
2019-05-20T01:18:25.786Z,944.09
2019-05-20T01:19:25.798Z,944.09
2019-05-20T01:20:25.806Z,944.05
2019-05-20T01:21:25.811Z,944.08
2019-05-20T01:22:25.823Z,944.08
2019-05-20T01:23:25.832Z,944.11
2019-05-20T01:24:25.842Z,944.11
2019-05-20T01:25:25.853Z,944.08
2019-05-20T01:26:25.859Z,944.12
2019-05-20T01:27:25.879Z,944.13
2019-05-20T01:28:25.872Z,944.07
2019-05-20T01:29:25.885Z,944.09
2019-05-20T01:30:25.899Z,944.10
2019-05-20T01:31:25.907Z,944.08
2019-05-20T01:32:25.911Z,944.11
2019-05-20T01:33:25.922Z,944.10
2019-05-20T01:34:25.936Z,944.09
2019-05-20T01:35:25.946Z,944.06
2019-05-20T01:36:25.955Z,944.09
2019-05-20T01:37:25.964Z,944.06
2019-05-20T01:38:25.964Z,944.05
2019-05-20T01:39:25.992Z,944.05
2019-05-20T01:40:25.986Z,944.04
2019-05-20T01:41:25.998Z,944.01
2019-05-20T01:42:26.003Z,944.06
2019-05-20T01:43:26.014Z,944.08
2019-05-20T01:44:26.032Z,944.10
2019-05-20T01:45:26.038Z,944.10
2019-05-20T01:46:26.051Z,944.10
2019-05-20T01:47:26.052Z,944.12
2019-05-20T01:48:26.061Z,944.14
2019-05-20T01:49:26.068Z,944.11
2019-05-20T01:50:26.087Z,944.13
2019-05-20T01:51:26.089Z,944.17
2019-05-20T01:52:26.097Z,944.13
2019-05-20T01:53:26.109Z,944.14
2019-05-20T01:54:26.113Z,944.14
2019-05-20T01:55:26.128Z,944.19
2019-05-20T01:56:26.131Z,944.17
2019-05-20T01:57:26.137Z,944.16
2019-05-20T01:58:26.146Z,944.20
2019-05-20T01:59:26.156Z,944.18
2019-05-20T02:00:26.173Z,944.20
2019-05-20T02:01:26.180Z,944.20
2019-05-20T02:02:26.187Z,944.22
2019-05-20T02:03:31.815Z,944.21
2019-05-20T02:04:26.210Z,944.23
2019-05-20T02:05:26.220Z,944.24
2019-05-20T02:06:26.231Z,944.22
2019-05-20T02:07:26.234Z,944.24
2019-05-20T02:08:26.244Z,944.18
2019-05-20T02:09:26.253Z,944.20
2019-05-20T02:10:26.262Z,944.20
2019-05-20T02:11:26.286Z,944.17
2019-05-20T02:12:26.283Z,944.16
2019-05-20T02:13:26.288Z,944.17
2019-05-20T02:14:26.306Z,944.16
2019-05-20T02:15:26.312Z,944.17
2019-05-20T02:16:26.325Z,944.13
2019-05-20T02:17:26.329Z,944.20
2019-05-20T02:18:26.340Z,944.17
2019-05-20T02:19:26.345Z,944.14
2019-05-20T02:20:26.359Z,944.10
2019-05-20T02:21:26.364Z,944.12
2019-05-20T02:22:26.379Z,944.15
2019-05-20T02:23:26.388Z,944.12
2019-05-20T02:24:26.394Z,944.08
2019-05-20T02:25:26.399Z,944.10
2019-05-20T02:26:26.410Z,944.05
2019-05-20T02:27:26.431Z,944.06
2019-05-20T02:28:26.428Z,944.07
2019-05-20T02:29:26.438Z,944.01
2019-05-20T02:30:26.452Z,944.01
2019-05-20T02:31:26.455Z,943.97
2019-05-20T02:32:26.481Z,943.94
2019-05-20T02:33:26.475Z,943.92
2019-05-20T02:34:26.485Z,943.87
2019-05-20T02:35:26.497Z,943.86
2019-05-20T02:36:26.504Z,943.82
2019-05-20T02:37:26.514Z,943.82
2019-05-20T02:38:26.524Z,943.75
2019-05-20T02:39:26.953Z,943.74
2019-05-20T02:40:26.536Z,943.76
2019-05-20T02:41:26.553Z,943.78
2019-05-20T02:42:26.590Z,943.75
2019-05-20T02:43:26.566Z,943.79
2019-05-20T02:44:26.575Z,943.73
2019-05-20T02:45:26.581Z,943.72
2019-05-20T02:46:26.596Z,943.71
2019-05-20T02:47:26.603Z,943.67
2019-05-20T02:48:26.613Z,943.64
2019-05-20T02:49:26.625Z,943.61
2019-05-20T02:50:26.630Z,943.62
2019-05-20T02:51:26.641Z,943.56
2019-05-20T02:52:26.658Z,943.58
2019-05-20T02:53:26.661Z,943.58
2019-05-20T02:54:26.671Z,943.51
2019-05-20T02:55:26.676Z,943.53
2019-05-20T02:56:26.682Z,943.49
2019-05-20T02:57:26.694Z,943.49
2019-05-20T02:58:26.704Z,943.50
2019-05-20T02:59:26.711Z,943.49
2019-05-20T03:00:26.717Z,943.45
2019-05-20T03:01:26.725Z,943.45
2019-05-20T03:02:26.736Z,943.43
2019-05-20T03:03:26.747Z,943.43
2019-05-20T03:04:26.762Z,943.44
2019-05-20T03:05:26.763Z,943.42
2019-05-20T03:06:26.772Z,943.40
2019-05-20T03:07:26.777Z,943.38
2019-05-20T03:08:26.790Z,943.32
2019-05-20T03:09:26.799Z,943.35
2019-05-20T03:10:26.807Z,943.34
2019-05-20T03:11:26.817Z,943.36
2019-05-20T03:12:26.825Z,943.41
2019-05-20T03:13:26.835Z,943.39
2019-05-20T03:14:26.838Z,943.42
2019-05-20T03:15:26.853Z,943.46
2019-05-20T03:16:26.864Z,943.46
2019-05-20T03:17:26.870Z,943.53
2019-05-20T03:18:26.888Z,943.53
2019-05-20T03:19:26.888Z,943.57
2019-05-20T03:20:26.892Z,943.55
2019-05-20T03:21:26.898Z,943.59
2019-05-20T03:22:26.914Z,943.57
2019-05-20T03:23:26.920Z,943.60
2019-05-20T03:24:26.928Z,943.57
2019-05-20T03:25:26.940Z,943.55
2019-05-20T03:26:26.942Z,943.58
2019-05-20T03:27:26.957Z,943.59
2019-05-20T03:28:26.966Z,943.59
2019-05-20T03:29:26.973Z,943.58
2019-05-20T03:30:26.983Z,943.59
2019-05-20T03:31:26.997Z,943.55
2019-05-20T03:32:27.003Z,943.59
2019-05-20T03:33:27.022Z,943.60
2019-05-20T03:34:45.487Z,943.62
2019-05-20T03:35:27.025Z,943.58
2019-05-20T03:36:27.036Z,943.59
2019-05-20T03:37:27.050Z,943.59
2019-05-20T03:38:27.058Z,943.59
2019-05-20T03:39:27.066Z,943.58
2019-05-20T03:40:27.078Z,943.60
2019-05-20T03:41:27.088Z,943.58
2019-05-20T03:42:27.089Z,943.60
2019-05-20T03:43:27.102Z,943.60
2019-05-20T03:44:27.111Z,943.55
2019-05-20T03:45:27.116Z,943.53
2019-05-20T03:46:27.125Z,943.56
2019-05-20T03:47:27.136Z,943.55
2019-05-20T03:48:27.145Z,943.58
2019-05-20T03:49:27.150Z,943.57
2019-05-20T03:50:27.164Z,943.57
2019-05-20T03:51:27.173Z,943.54
2019-05-20T03:52:27.178Z,943.57
2019-05-20T03:53:27.190Z,943.56
2019-05-20T03:54:27.195Z,943.53
2019-05-20T03:55:27.213Z,943.55
2019-05-20T03:56:27.213Z,943.51
2019-05-20T03:57:27.224Z,943.54
2019-05-20T03:58:27.237Z,943.55
2019-05-20T03:59:27.242Z,943.54
2019-05-20T04:00:27.253Z,943.52
2019-05-20T04:01:27.267Z,943.54
2019-05-20T04:02:27.271Z,943.55
2019-05-20T04:03:27.278Z,943.57
2019-05-20T04:04:27.288Z,943.55
2019-05-20T04:05:27.301Z,943.55
2019-05-20T04:06:27.314Z,943.52
2019-05-20T04:07:27.312Z,943.53
2019-05-20T04:08:27.320Z,943.48
2019-05-20T04:09:27.332Z,943.54
2019-05-20T04:10:27.350Z,943.50
2019-05-20T04:11:27.349Z,943.50
2019-05-20T04:12:27.358Z,943.52
2019-05-20T04:13:27.370Z,943.51
2019-05-20T04:14:27.398Z,943.54
2019-05-20T04:15:27.384Z,943.57
2019-05-20T04:16:27.394Z,943.57
2019-05-20T04:17:27.404Z,943.56
2019-05-20T04:18:27.411Z,943.61
2019-05-20T04:19:27.417Z,943.60
2019-05-20T04:20:27.434Z,943.58
2019-05-20T04:21:27.436Z,943.61
2019-05-20T04:22:27.802Z,943.60
2019-05-20T04:23:27.455Z,943.61
2019-05-20T04:24:27.465Z,943.63
2019-05-20T04:25:27.475Z,943.59
2019-05-20T04:26:27.480Z,943.63
2019-05-20T04:27:27.490Z,943.59
2019-05-20T04:28:27.506Z,943.62
2019-05-20T04:29:27.514Z,943.60
2019-05-20T04:30:27.527Z,943.56
2019-05-20T04:31:27.526Z,943.58
2019-05-20T04:32:27.540Z,943.58
2019-05-20T04:33:27.548Z,943.56
2019-05-20T04:34:27.552Z,943.54
2019-05-20T04:35:27.562Z,943.54
2019-05-20T04:36:27.568Z,943.56
2019-05-20T04:37:27.591Z,943.54
2019-05-20T04:38:27.589Z,943.57
2019-05-20T04:39:27.608Z,943.58
2019-05-20T04:40:27.607Z,943.58
2019-05-20T04:41:27.615Z,943.57
2019-05-20T04:42:27.625Z,943.58
2019-05-20T04:43:27.638Z,943.57
2019-05-20T04:44:27.643Z,943.59
2019-05-20T04:45:27.658Z,943.57
2019-05-20T04:46:27.665Z,943.58
2019-05-20T04:47:27.672Z,943.62
2019-05-20T04:48:27.685Z,943.60
2019-05-20T04:49:27.688Z,943.60
2019-05-20T04:50:27.697Z,943.64
2019-05-20T04:51:27.711Z,943.63
2019-05-20T04:52:27.719Z,943.62
2019-05-20T04:53:27.725Z,943.65
2019-05-20T04:54:27.744Z,943.62
2019-05-20T04:55:27.737Z,943.64
2019-05-20T04:56:29.340Z,943.67
2019-05-20T04:57:27.768Z,943.65
2019-05-20T04:58:27.767Z,943.62
2019-05-20T04:59:27.780Z,943.67
2019-05-20T05:00:27.789Z,943.66
2019-05-20T05:01:27.800Z,943.70
2019-05-20T05:02:27.803Z,943.65
2019-05-20T05:03:27.823Z,943.66
2019-05-20T05:04:27.821Z,943.71
2019-05-20T05:05:37.276Z,943.70
2019-05-20T05:06:27.835Z,943.67
2019-05-20T05:07:27.852Z,943.69
2019-05-20T05:08:27.859Z,943.68
2019-05-20T05:09:27.869Z,943.67
2019-05-20T05:10:27.880Z,943.73
2019-05-20T05:11:27.894Z,943.73
2019-05-20T05:12:27.893Z,943.73
2019-05-20T05:13:27.903Z,943.74
2019-05-20T05:14:27.913Z,943.76
2019-05-20T05:15:27.920Z,943.74
2019-05-20T05:16:27.930Z,943.75
2019-05-20T05:17:27.941Z,943.79
2019-05-20T05:18:27.952Z,943.77
2019-05-20T05:19:27.958Z,943.76
2019-05-20T05:20:27.965Z,943.76
2019-05-20T05:21:27.975Z,943.77
2019-05-20T05:22:27.987Z,943.79
2019-05-20T05:23:27.998Z,943.77
2019-05-20T05:24:28.009Z,943.73
2019-05-20T05:25:28.011Z,943.70
2019-05-20T05:26:28.020Z,943.70
2019-05-20T05:27:28.039Z,943.70
2019-05-20T05:28:28.037Z,943.70
2019-05-20T05:29:28.046Z,943.70
2019-05-20T05:30:28.054Z,943.71
2019-05-20T05:31:28.064Z,943.71
2019-05-20T05:32:28.074Z,943.68
2019-05-20T05:33:28.093Z,943.72
2019-05-20T05:34:28.092Z,943.68
2019-05-20T05:35:28.102Z,943.67
2019-05-20T05:36:28.112Z,943.67
2019-05-20T05:37:28.124Z,943.68
2019-05-20T05:38:28.127Z,943.69
2019-05-20T05:39:28.134Z,943.70
2019-05-20T05:40:28.145Z,943.70
2019-05-20T05:41:28.156Z,943.73
2019-05-20T05:42:28.163Z,943.72
2019-05-20T05:43:28.176Z,943.73
2019-05-20T05:44:28.181Z,943.72
2019-05-20T05:45:29.294Z,943.72
2019-05-20T05:46:28.200Z,943.72
2019-05-20T05:47:28.210Z,943.70
2019-05-20T05:48:28.220Z,943.71
2019-05-20T05:49:28.231Z,943.72
2019-05-20T05:50:28.238Z,943.73
2019-05-20T05:51:28.247Z,943.70
2019-05-20T05:52:28.251Z,943.69
2019-05-20T05:53:28.266Z,943.69
2019-05-20T05:54:28.281Z,943.69
2019-05-20T05:55:28.283Z,943.71
2019-05-20T05:56:28.293Z,943.68
2019-05-20T05:57:28.299Z,943.66
2019-05-20T05:58:28.309Z,943.68
2019-05-20T05:59:28.318Z,943.70
2019-05-20T06:00:28.327Z,943.66
2019-05-20T06:01:28.334Z,943.72
2019-05-20T06:02:28.348Z,943.65
2019-05-20T06:03:28.450Z,943.66
2019-05-20T06:04:28.365Z,943.71
2019-05-20T06:05:31.548Z,943.68
2019-05-20T06:06:28.385Z,943.71
2019-05-20T06:07:28.391Z,943.71
2019-05-20T06:08:28.402Z,943.70
2019-05-20T06:09:28.417Z,943.74
2019-05-20T06:10:28.419Z,943.68
2019-05-20T06:11:28.432Z,943.73
2019-05-20T06:12:28.443Z,943.78
2019-05-20T06:13:28.448Z,943.74
2019-05-20T06:14:28.463Z,943.76
2019-05-20T06:15:28.468Z,943.74
2019-05-20T06:16:36.452Z,943.78
2019-05-20T06:17:28.488Z,943.76
2019-05-20T06:18:28.495Z,943.73
2019-05-20T06:19:28.508Z,943.74
2019-05-20T06:20:28.512Z,943.75
2019-05-20T06:21:28.523Z,943.78
2019-05-20T06:22:28.530Z,943.77
2019-05-20T06:23:28.538Z,943.77
2019-05-20T06:24:28.548Z,943.79
2019-05-20T06:25:28.569Z,943.80
2019-05-20T06:26:28.572Z,943.80
2019-05-20T06:27:28.610Z,943.82
2019-05-20T06:28:28.589Z,943.83
2019-05-20T06:29:28.626Z,943.85
2019-05-20T06:30:28.634Z,943.86
2019-05-20T06:31:28.619Z,943.87
2019-05-20T06:32:28.628Z,943.85
2019-05-20T06:33:28.642Z,943.85
2019-05-20T06:34:28.643Z,943.88
2019-05-20T06:35:28.653Z,943.88
2019-05-20T06:36:28.670Z,943.87
2019-05-20T06:37:28.672Z,943.84
2019-05-20T06:38:28.679Z,943.88
2019-05-20T06:39:28.694Z,943.86
2019-05-20T06:40:28.704Z,943.84
2019-05-20T06:41:28.710Z,943.82
2019-05-20T06:42:28.714Z,943.84
2019-05-20T06:43:28.726Z,943.84
2019-05-20T06:44:28.738Z,943.85
2019-05-20T06:45:28.777Z,943.84
2019-05-20T06:46:28.749Z,943.80
2019-05-20T06:47:28.765Z,943.82
2019-05-20T06:48:28.772Z,943.82
2019-05-20T06:49:28.788Z,943.80
2019-05-20T06:50:29.737Z,943.83
2019-05-20T06:51:28.806Z,943.80
2019-05-20T06:52:35.996Z,943.81
2019-05-20T06:53:28.821Z,943.83
2019-05-20T06:54:28.829Z,943.86
2019-05-20T06:55:28.842Z,943.81
2019-05-20T06:56:28.848Z,943.85
2019-05-20T06:57:28.860Z,943.83
2019-05-20T06:58:28.866Z,943.85
2019-05-20T06:59:28.874Z,943.82
2019-05-20T07:00:28.880Z,943.85
2019-05-20T07:01:28.891Z,943.89
2019-05-20T07:02:28.909Z,943.89
2019-05-20T07:03:28.911Z,943.88
2019-05-20T07:04:28.925Z,943.91
2019-05-20T07:05:28.933Z,943.86
2019-05-20T07:06:44.890Z,943.89
2019-05-20T07:07:28.954Z,943.92
2019-05-20T07:08:28.969Z,943.92
2019-05-20T07:09:28.968Z,943.95
2019-05-20T07:10:28.977Z,943.94
2019-05-20T07:11:29.042Z,943.92
2019-05-20T07:12:40.598Z,943.95
2019-05-20T07:13:29.003Z,943.93
2019-05-20T07:14:29.016Z,943.92
2019-05-20T07:15:29.022Z,943.89
2019-05-20T07:16:29.028Z,943.84
2019-05-20T07:17:29.039Z,943.85
2019-05-20T07:18:29.085Z,943.81
2019-05-20T07:19:29.059Z,943.86
2019-05-20T07:20:29.084Z,943.90
2019-05-20T07:21:29.073Z,943.88
2019-05-20T07:22:29.083Z,943.89
2019-05-20T07:23:29.094Z,943.92
2019-05-20T07:24:29.101Z,943.91
2019-05-20T07:25:29.313Z,943.96
2019-05-20T07:26:29.135Z,943.96
2019-05-20T07:27:29.142Z,943.98
2019-05-20T07:28:29.159Z,944.01
2019-05-20T07:29:29.159Z,943.99
2019-05-20T07:30:29.208Z,944.00
2019-05-20T07:31:29.165Z,944.04
2019-05-20T07:32:29.193Z,944.11
2019-05-20T07:33:29.183Z,944.04
2019-05-20T07:34:29.192Z,944.10
2019-05-20T07:35:30.986Z,944.06
2019-05-20T07:36:29.220Z,944.11
2019-05-20T07:37:29.234Z,944.10
2019-05-20T07:38:29.234Z,944.09
2019-05-20T07:39:29.233Z,944.15
2019-05-20T07:40:29.253Z,944.13
2019-05-20T07:41:29.257Z,944.11
2019-05-20T07:42:29.263Z,944.09
2019-05-20T07:43:29.275Z,944.09
2019-05-20T07:44:29.289Z,944.09
2019-05-20T07:45:29.290Z,944.06
2019-05-20T07:46:29.317Z,944.07
2019-05-20T07:47:29.310Z,944.10
2019-05-20T07:48:29.351Z,944.07
2019-05-20T07:49:29.331Z,944.10
2019-05-20T07:50:29.338Z,944.10
2019-05-20T07:51:29.345Z,944.04
2019-05-20T07:52:29.361Z,944.09
2019-05-20T07:53:29.440Z,944.05
2019-05-20T07:54:29.374Z,944.07
2019-05-20T07:55:29.378Z,944.07
2019-05-20T07:56:29.392Z,944.08
2019-05-20T07:57:29.400Z,944.09
2019-05-20T07:58:29.432Z,944.06
2019-05-20T07:59:29.441Z,944.11
2019-05-20T08:00:29.449Z,944.09
2019-05-20T08:01:29.439Z,944.11
2019-05-20T08:02:29.495Z,944.09
2019-05-20T08:03:29.467Z,944.11
2019-05-20T08:04:29.902Z,944.09
2019-05-20T08:05:29.472Z,944.09
2019-05-20T08:06:29.479Z,944.14
2019-05-20T08:07:49.902Z,944.17
2019-05-20T08:08:29.497Z,944.13
2019-05-20T08:09:29.548Z,944.13
2019-05-20T08:10:29.523Z,944.14
2019-05-20T08:11:29.535Z,944.11
2019-05-20T08:12:29.554Z,944.14
2019-05-20T08:13:29.550Z,944.10
2019-05-20T08:14:29.557Z,944.14
2019-05-20T08:15:29.560Z,944.14
2019-05-20T08:16:29.606Z,944.15
2019-05-20T08:17:29.587Z,944.14
2019-05-20T08:18:29.593Z,944.18
2019-05-20T08:19:29.609Z,944.15
2019-05-20T08:20:29.610Z,944.21
2019-05-20T08:21:29.620Z,944.20
2019-05-20T08:22:29.626Z,944.24
2019-05-20T08:23:29.632Z,944.24
2019-05-20T08:24:29.646Z,944.25
2019-05-20T08:25:29.654Z,944.26
2019-05-20T08:26:29.709Z,944.27
2019-05-20T08:27:29.676Z,944.24
2019-05-20T08:28:29.685Z,944.22
2019-05-20T08:29:29.690Z,944.28
2019-05-20T08:30:29.702Z,944.32
2019-05-20T08:31:29.718Z,944.24
2019-05-20T08:32:29.727Z,944.30
2019-05-20T08:33:29.725Z,944.32
2019-05-20T08:34:29.765Z,944.32
2019-05-20T08:35:29.748Z,944.29
2019-05-20T08:36:29.761Z,944.38
2019-05-20T08:37:44.310Z,944.31
2019-05-20T08:38:29.773Z,944.34
2019-05-20T08:39:29.786Z,944.32
2019-05-20T08:40:29.787Z,944.35
2019-05-20T08:41:29.832Z,944.40
2019-05-20T08:42:29.812Z,944.33
2019-05-20T08:43:29.823Z,944.33
2019-05-20T08:44:29.829Z,944.36
2019-05-20T08:45:29.845Z,944.35
2019-05-20T08:46:29.852Z,944.37
2019-05-20T08:47:29.858Z,944.38
2019-05-20T08:48:29.871Z,944.40
2019-05-20T08:49:29.884Z,944.39
2019-05-20T08:50:29.887Z,944.41
2019-05-20T08:51:29.897Z,944.38
2019-05-20T08:52:29.915Z,944.40
2019-05-20T08:53:29.921Z,944.40
2019-05-20T08:54:29.922Z,944.42
2019-05-20T08:55:29.941Z,944.42
2019-05-20T08:56:29.946Z,944.44
2019-05-20T08:57:29.962Z,944.48
2019-05-20T08:58:29.986Z,944.51
2019-05-20T08:59:29.980Z,944.49
2019-05-20T09:00:29.981Z,944.52
2019-05-20T09:01:30.006Z,944.53
2019-05-20T09:02:30.050Z,944.47
2019-05-20T09:03:30.607Z,944.42
2019-05-20T09:04:30.018Z,944.44
2019-05-20T09:05:30.045Z,944.47
2019-05-20T09:06:30.062Z,944.46
2019-05-20T09:07:30.057Z,944.46
2019-05-20T09:08:30.067Z,944.46
2019-05-20T09:09:30.111Z,944.47
2019-05-20T09:10:30.080Z,944.44
2019-05-20T09:11:30.093Z,944.42
2019-05-20T09:12:30.106Z,944.43
2019-05-20T09:13:30.115Z,944.41
2019-05-20T09:14:30.126Z,944.46
2019-05-20T09:15:30.179Z,944.47
2019-05-20T09:16:30.173Z,944.46
2019-05-20T09:17:30.166Z,944.41
2019-05-20T09:18:30.161Z,944.34
2019-05-20T09:19:30.396Z,944.41
2019-05-20T09:20:30.180Z,944.40
2019-05-20T09:21:30.196Z,944.35
2019-05-20T09:22:30.229Z,944.39
2019-05-20T09:23:30.215Z,944.33
2019-05-20T09:24:30.279Z,944.40
2019-05-20T09:25:30.238Z,944.42
2019-05-20T09:26:30.242Z,944.46
2019-05-20T09:27:30.251Z,944.45
2019-05-20T09:28:30.262Z,944.48
2019-05-20T09:29:30.290Z,944.41
2019-05-20T09:30:30.286Z,944.46
2019-05-20T09:31:30.300Z,944.38
2019-05-20T09:32:30.303Z,944.40
2019-05-20T09:33:30.317Z,944.44
2019-05-20T09:34:30.321Z,944.42
2019-05-20T09:35:30.350Z,944.44
2019-05-20T09:36:30.342Z,944.42
2019-05-20T09:37:30.353Z,944.43
2019-05-20T09:38:30.355Z,944.40
2019-05-20T09:39:30.368Z,944.40
2019-05-20T09:40:30.377Z,944.38
2019-05-20T09:41:30.400Z,944.41
2019-05-20T09:42:30.403Z,944.41
2019-05-20T09:43:30.407Z,944.43
2019-05-20T09:44:30.417Z,944.42
2019-05-20T09:45:30.434Z,944.44
2019-05-20T09:46:30.439Z,944.50
2019-05-20T09:47:30.447Z,944.48
2019-05-20T09:48:30.461Z,944.45
2019-05-20T09:49:30.468Z,944.44
2019-05-20T09:50:30.482Z,944.46
2019-05-20T09:51:30.490Z,944.44
2019-05-20T09:52:30.503Z,944.40
2019-05-20T09:53:30.505Z,944.41
2019-05-20T09:54:30.520Z,944.41
2019-05-20T09:55:30.535Z,944.39
2019-05-20T09:56:30.537Z,944.38
2019-05-20T09:57:30.545Z,944.39
2019-05-20T09:58:30.557Z,944.42
2019-05-20T09:59:42.566Z,944.41
2019-05-20T10:00:30.575Z,944.38
2019-05-20T10:01:30.591Z,944.43
2019-05-20T10:02:37.555Z,944.38
2019-05-20T10:03:30.602Z,944.38
2019-05-20T10:04:30.612Z,944.41
2019-05-20T10:05:30.625Z,944.42
2019-05-20T10:06:30.633Z,944.39
2019-05-20T10:07:30.644Z,944.42
2019-05-20T10:08:37.924Z,944.36
2019-05-20T10:09:30.659Z,944.41
2019-05-20T10:10:30.670Z,944.40
2019-05-20T10:11:30.681Z,944.39
2019-05-20T10:12:45.324Z,944.45
2019-05-20T10:13:30.695Z,944.43
2019-05-20T10:14:30.712Z,944.42
2019-05-20T10:15:30.716Z,944.41
2019-05-20T10:16:30.727Z,944.40
2019-05-20T10:17:30.737Z,944.39
2019-05-20T10:18:37.368Z,944.38
2019-05-20T10:19:30.754Z,944.35
2019-05-20T10:20:30.767Z,944.36
2019-05-20T10:21:30.775Z,944.32
2019-05-20T10:22:31.980Z,944.29
2019-05-20T10:23:30.792Z,944.29
2019-05-20T10:24:30.818Z,944.27
2019-05-20T10:25:30.814Z,944.25
2019-05-20T10:26:30.818Z,944.27
2019-05-20T10:27:30.828Z,944.29
2019-05-20T10:28:30.839Z,944.30
2019-05-20T10:29:30.849Z,944.36
2019-05-20T10:30:30.860Z,944.40
2019-05-20T10:31:30.866Z,944.45
2019-05-20T10:32:30.875Z,944.42
2019-05-20T10:33:30.886Z,944.41
2019-05-20T10:34:30.895Z,944.40
2019-05-20T10:35:30.906Z,944.43
2019-05-20T10:36:30.915Z,944.39
2019-05-20T10:37:30.929Z,944.51
2019-05-20T10:38:30.929Z,944.50
2019-05-20T10:39:30.941Z,944.55
2019-05-20T10:40:30.951Z,944.56
2019-05-20T10:41:30.975Z,944.57
2019-05-20T10:42:30.967Z,944.55
2019-05-20T10:43:30.980Z,944.45
2019-05-20T10:44:31.004Z,944.43
2019-05-20T10:45:30.991Z,944.36
2019-05-20T10:46:31.009Z,944.38
2019-05-20T10:47:31.026Z,944.38
2019-05-20T10:48:31.039Z,944.41
2019-05-20T10:49:31.065Z,944.42
2019-05-20T10:50:31.050Z,944.44
2019-05-20T10:51:31.051Z,944.46
2019-05-20T10:52:31.062Z,944.47
2019-05-20T10:53:31.076Z,944.51
2019-05-20T10:54:31.080Z,944.56
2019-05-20T10:55:31.117Z,944.53
2019-05-20T10:56:31.099Z,944.56
2019-05-20T10:57:31.103Z,944.56
2019-05-20T10:58:31.137Z,944.58
2019-05-20T10:59:31.124Z,944.60
2019-05-20T11:00:31.130Z,944.55
2019-05-20T11:01:31.142Z,944.54
2019-05-20T11:02:31.441Z,944.56
2019-05-20T11:03:31.160Z,944.55
2019-05-20T11:04:35.307Z,944.54
2019-05-20T11:05:31.191Z,944.57
2019-05-20T11:06:31.189Z,944.60
2019-05-20T11:07:31.194Z,944.56
2019-05-20T11:08:31.209Z,944.61
2019-05-20T11:09:31.212Z,944.64
2019-05-20T11:10:31.224Z,944.60
2019-05-20T11:11:31.231Z,944.63
2019-05-20T11:12:31.252Z,944.74
2019-05-20T11:13:31.244Z,944.80
2019-05-20T11:14:31.262Z,944.87
2019-05-20T11:15:31.269Z,944.89
2019-05-20T11:16:31.278Z,944.88
2019-05-20T11:17:31.297Z,944.97
2019-05-20T11:18:31.299Z,944.99
2019-05-20T11:19:31.307Z,944.99
2019-05-20T11:20:31.319Z,944.98
2019-05-20T11:21:31.325Z,944.90
2019-05-20T11:22:31.334Z,944.92
2019-05-20T11:23:31.386Z,944.94
2019-05-20T11:24:31.349Z,945.05
2019-05-20T11:25:31.443Z,945.05
2019-05-20T11:26:31.372Z,945.00
2019-05-20T11:27:31.386Z,944.98
2019-05-20T11:28:31.390Z,944.91
2019-05-20T11:29:31.402Z,944.93
2019-05-20T11:30:31.416Z,944.95
2019-05-20T11:31:31.426Z,944.99
2019-05-20T11:32:31.435Z,944.91
2019-05-20T11:33:31.449Z,944.99
2019-05-20T11:34:31.485Z,945.01
2019-05-20T11:35:31.478Z,945.09
2019-05-20T11:36:31.475Z,945.08
2019-05-20T11:37:31.489Z,945.07
2019-05-20T11:38:31.549Z,945.01
2019-05-20T11:39:34.024Z,945.00
2019-05-20T11:40:31.521Z,945.02
2019-05-20T11:41:54.515Z,945.15
2019-05-20T11:42:31.542Z,945.15
2019-05-20T11:43:31.547Z,945.20
2019-05-20T11:44:31.554Z,945.19
2019-05-20T11:45:31.566Z,945.09
2019-05-20T11:46:31.581Z,945.07
2019-05-20T11:47:31.595Z,945.07
2019-05-20T11:48:31.628Z,945.12
2019-05-20T11:49:31.615Z,944.97
2019-05-20T11:50:31.636Z,944.99
2019-05-20T11:51:31.635Z,944.93
2019-05-20T11:52:31.657Z,944.91
2019-05-20T11:53:31.657Z,944.99
2019-05-20T11:54:31.667Z,944.99
2019-05-20T11:55:31.737Z,944.89
2019-05-20T11:56:31.691Z,944.87
2019-05-20T11:57:31.706Z,944.98
2019-05-20T11:58:31.708Z,944.88
2019-05-20T11:59:31.728Z,944.84
2019-05-20T12:00:31.773Z,944.99
2019-05-20T12:01:31.743Z,944.96
2019-05-20T12:02:31.752Z,944.90
2019-05-20T12:03:31.763Z,944.95
2019-05-20T12:04:31.771Z,944.96
2019-05-20T12:05:31.783Z,944.87
2019-05-20T12:06:31.796Z,944.96
2019-05-20T12:07:31.802Z,944.93
2019-05-20T12:08:31.811Z,944.88
2019-05-20T12:09:47.812Z,944.88
2019-05-20T12:10:31.838Z,944.83
2019-05-20T12:11:31.882Z,944.82
2019-05-20T12:12:31.852Z,944.85
2019-05-20T12:13:31.863Z,944.82
2019-05-20T12:14:31.933Z,944.89
2019-05-20T12:15:31.889Z,944.85
2019-05-20T12:16:31.898Z,944.79
2019-05-20T12:17:31.906Z,944.80
2019-05-20T12:18:31.920Z,944.84
2019-05-20T12:19:31.929Z,944.92
2019-05-20T12:20:31.939Z,945.03
2019-05-20T12:21:31.965Z,945.03
2019-05-20T12:22:31.983Z,944.98
2019-05-20T12:23:31.975Z,945.02
2019-05-20T12:24:31.986Z,945.06
2019-05-20T12:25:31.993Z,945.02
2019-05-20T12:26:32.008Z,944.87
2019-05-20T12:27:32.046Z,944.90
2019-05-20T12:28:32.021Z,944.87